sensor_id;sensor_type;location;lat;lon;timestamp;pressure;altitude;pressure_sealevel;temperature;humidity
23953;BME280;12163;49.316;6.092;2024-01-16T00:02:16;99003.81;;;1.61;65.22
23953;BME280;12163;49.316;6.092;2024-01-16T00:04:43;99007.53;;;1.60;65.37
23953;BME280;12163;49.316;6.092;2024-01-16T00:07:10;99005.94;;;1.59;65.54
23953;BME280;12163;49.316;6.092;2024-01-16T00:09:36;99006.16;;;1.57;65.38
23953;BME280;12163;49.316;6.092;2024-01-16T00:12:03;99002.69;;;1.57;65.49
23953;BME280;12163;49.316;6.092;2024-01-16T00:14:30;99011.25;;;1.59;65.33
23953;BME280;12163;49.316;6.092;2024-01-16T00:16:57;98999.78;;;1.58;65.53
23953;BME280;12163;49.316;6.092;2024-01-16T00:19:23;98998.50;;;1.61;65.50
23953;BME280;12163;49.316;6.092;2024-01-16T00:21:52;99003.56;;;1.62;65.07
23953;BME280;12163;49.316;6.092;2024-01-16T00:24:18;98991.59;;;1.60;65.41
23953;BME280;12163;49.316;6.092;2024-01-16T00:26:45;98989.41;;;1.57;65.33
23953;BME280;12163;49.316;6.092;2024-01-16T00:29:13;99001.09;;;1.56;65.37
23953;BME280;12163;49.316;6.092;2024-01-16T00:31:39;99010.09;;;1.55;65.27
23953;BME280;12163;49.316;6.092;2024-01-16T00:34:06;99011.13;;;1.54;65.47
23953;BME280;12163;49.316;6.092;2024-01-16T00:36:33;99006.50;;;1.61;65.60
23953;BME280;12163;49.316;6.092;2024-01-16T00:38:59;99014.31;;;1.67;65.26
23953;BME280;12163;49.316;6.092;2024-01-16T00:41:26;99020.91;;;1.64;65.26
23953;BME280;12163;49.316;6.092;2024-01-16T00:43:53;99012.69;;;1.66;65.21
23953;BME280;12163;49.316;6.092;2024-01-16T00:46:20;99006.56;;;1.65;65.11
23953;BME280;12163;49.316;6.092;2024-01-16T00:48:47;99010.13;;;1.71;65.14
23953;BME280;12163;49.316;6.092;2024-01-16T00:51:14;99015.59;;;1.81;64.74
23953;BME280;12163;49.316;6.092;2024-01-16T00:53:42;99011.72;;;1.88;64.64
23953;BME280;12163;49.316;6.092;2024-01-16T00:56:09;99016.06;;;1.94;64.64
23953;BME280;12163;49.316;6.092;2024-01-16T00:58:36;99010.25;;;1.97;64.19
23953;BME280;12163;49.316;6.092;2024-01-16T01:01:03;99013.75;;;1.98;64.07
23953;BME280;12163;49.316;6.092;2024-01-16T01:03:30;99006.09;;;2.01;64.42
23953;BME280;12163;49.316;6.092;2024-01-16T01:05:57;99017.84;;;2.05;64.06
23953;BME280;12163;49.316;6.092;2024-01-16T01:08:23;99012.81;;;2.09;64.07
23953;BME280;12163;49.316;6.092;2024-01-16T01:10:50;99020.59;;;2.10;63.83
23953;BME280;12163;49.316;6.092;2024-01-16T01:13:17;99024.28;;;2.09;63.97
23953;BME280;12163;49.316;6.092;2024-01-16T01:15:43;99029.13;;;2.12;63.78
23953;BME280;12163;49.316;6.092;2024-01-16T01:18:10;99026.03;;;2.20;63.86
23953;BME280;12163;49.316;6.092;2024-01-16T01:20:37;99028.16;;;2.18;63.75
23953;BME280;12163;49.316;6.092;2024-01-16T01:23:03;99032.19;;;2.21;63.81
23953;BME280;12163;49.316;6.092;2024-01-16T01:25:30;99036.22;;;2.23;63.50
23953;BME280;12163;49.316;6.092;2024-01-16T01:27:57;99029.34;;;2.27;63.49
23953;BME280;12163;49.316;6.092;2024-01-16T01:30:23;99034.69;;;2.27;63.21
23953;BME280;12163;49.316;6.092;2024-01-16T01:32:50;99019.22;;;2.24;63.18
23953;BME280;12163;49.316;6.092;2024-01-16T01:35:17;99030.66;;;2.25;63.42
23953;BME280;12163;49.316;6.092;2024-01-16T01:37:46;99034.69;;;2.27;63.42
23953;BME280;12163;49.316;6.092;2024-01-16T01:40:12;99030.22;;;2.33;63.25
23953;BME280;12163;49.316;6.092;2024-01-16T01:42:44;99028.31;;;2.28;63.22
23953;BME280;12163;49.316;6.092;2024-01-16T01:45:10;99032.31;;;2.31;63.08
23953;BME280;12163;49.316;6.092;2024-01-16T01:47:41;99033.88;;;2.27;63.22
23953;BME280;12163;49.316;6.092;2024-01-16T01:50:13;99035.47;;;2.28;63.15
23953;BME280;12163;49.316;6.092;2024-01-16T01:52:40;99031.03;;;2.33;63.28
23953;BME280;12163;49.316;6.092;2024-01-16T01:55:11;99032.88;;;2.33;63.07
23953;BME280;12163;49.316;6.092;2024-01-16T01:57:40;99024.88;;;2.33;63.11
23953;BME280;12163;49.316;6.092;2024-01-16T02:00:09;99029.75;;;2.36;62.95
23953;BME280;12163;49.316;6.092;2024-01-16T02:02:36;99025.22;;;2.36;62.85
23953;BME280;12163;49.316;6.092;2024-01-16T02:05:03;99034.25;;;2.35;62.73
23953;BME280;12163;49.316;6.092;2024-01-16T02:07:31;99027.25;;;2.29;62.93
23953;BME280;12163;49.316;6.092;2024-01-16T02:09:58;99029.66;;;2.31;62.97
23953;BME280;12163;49.316;6.092;2024-01-16T02:12:26;99027.75;;;2.26;63.09
23953;BME280;12163;49.316;6.092;2024-01-16T02:14:53;99020.16;;;2.18;62.92
23953;BME280;12163;49.316;6.092;2024-01-16T02:17:20;99020.09;;;2.13;63.38
23953;BME280;12163;49.316;6.092;2024-01-16T02:19:46;99022.13;;;2.06;63.45
23953;BME280;12163;49.316;6.092;2024-01-16T02:22:16;99022.06;;;2.01;63.53
23953;BME280;12163;49.316;6.092;2024-01-16T02:24:46;99012.84;;;1.92;63.23
23953;BME280;12163;49.316;6.092;2024-01-16T02:27:12;99017.53;;;1.85;63.69
23953;BME280;12163;49.316;6.092;2024-01-16T02:29:42;99006.81;;;1.80;64.03
23953;BME280;12163;49.316;6.092;2024-01-16T02:32:12;99003.00;;;1.76;63.87
23953;BME280;12163;49.316;6.092;2024-01-16T02:34:40;99008.50;;;1.70;63.57
23953;BME280;12163;49.316;6.092;2024-01-16T02:37:06;99007.06;;;1.63;63.99
23953;BME280;12163;49.316;6.092;2024-01-16T02:39:33;98999.78;;;1.58;63.86
23953;BME280;12163;49.316;6.092;2024-01-16T02:41:59;99009.22;;;1.49;64.15
23953;BME280;12163;49.316;6.092;2024-01-16T02:44:26;99004.28;;;1.41;64.61
23953;BME280;12163;49.316;6.092;2024-01-16T02:46:53;99000.75;;;1.36;64.58
23953;BME280;12163;49.316;6.092;2024-01-16T02:49:19;98997.75;;;1.32;64.89
23953;BME280;12163;49.316;6.092;2024-01-16T02:51:46;98998.22;;;1.29;64.70
23953;BME280;12163;49.316;6.092;2024-01-16T02:54:13;99003.78;;;1.28;64.79
23953;BME280;12163;49.316;6.092;2024-01-16T02:56:40;99004.25;;;1.25;64.79
23953;BME280;12163;49.316;6.092;2024-01-16T02:59:07;99008.44;;;1.21;64.67
23953;BME280;12163;49.316;6.092;2024-01-16T03:01:34;99013.41;;;1.17;65.31
23953;BME280;12163;49.316;6.092;2024-01-16T03:04:00;99014.72;;;1.15;65.05
23953;BME280;12163;49.316;6.092;2024-01-16T03:06:27;99014.94;;;1.13;65.29
23953;BME280;12163;49.316;6.092;2024-01-16T03:08:55;99009.53;;;1.08;65.55
23953;BME280;12163;49.316;6.092;2024-01-16T03:11:22;99003.41;;;1.08;65.95
23953;BME280;12163;49.316;6.092;2024-01-16T03:13:49;99005.00;;;1.09;65.72
23953;BME280;12163;49.316;6.092;2024-01-16T03:16:19;99000.75;;;1.08;65.97
23953;BME280;12163;49.316;6.092;2024-01-16T03:18:46;98995.19;;;1.09;65.85
23953;BME280;12163;49.316;6.092;2024-01-16T03:21:14;98994.84;;;1.06;65.74
23953;BME280;12163;49.316;6.092;2024-01-16T03:23:40;98995.81;;;1.00;65.81
23953;BME280;12163;49.316;6.092;2024-01-16T03:26:12;99005.31;;;0.96;65.81
23953;BME280;12163;49.316;6.092;2024-01-16T03:28:39;98998.28;;;0.90;65.87
23953;BME280;12163;49.316;6.092;2024-01-16T03:31:06;99016.75;;;0.85;66.25
23953;BME280;12163;49.316;6.092;2024-01-16T03:33:33;99004.66;;;0.77;66.32
23953;BME280;12163;49.316;6.092;2024-01-16T03:36:01;99011.16;;;0.70;66.75
23953;BME280;12163;49.316;6.092;2024-01-16T03:38:29;99004.47;;;0.67;66.80
23953;BME280;12163;49.316;6.092;2024-01-16T03:40:55;99004.13;;;0.64;67.35
23953;BME280;12163;49.316;6.092;2024-01-16T03:43:22;99006.31;;;0.67;67.46
23953;BME280;12163;49.316;6.092;2024-01-16T03:45:48;99008.97;;;0.67;67.38
23953;BME280;12163;49.316;6.092;2024-01-16T03:48:15;99001.03;;;0.67;66.99
23953;BME280;12163;49.316;6.092;2024-01-16T03:50:42;98999.97;;;0.68;67.27
23953;BME280;12163;49.316;6.092;2024-01-16T03:53:10;99003.41;;;0.68;67.27
23953;BME280;12163;49.316;6.092;2024-01-16T03:55:37;99001.03;;;0.67;67.56
23953;BME280;12163;49.316;6.092;2024-01-16T03:58:03;98994.66;;;0.68;67.41
23953;BME280;12163;49.316;6.092;2024-01-16T04:00:30;98994.06;;;0.66;67.52
23953;BME280;12163;49.316;6.092;2024-01-16T04:02:56;98983.91;;;0.63;67.47
23953;BME280;12163;49.316;6.092;2024-01-16T04:05:23;98981.84;;;0.65;67.53
23953;BME280;12163;49.316;6.092;2024-01-16T04:07:50;98982.88;;;0.64;67.42
23953;BME280;12163;49.316;6.092;2024-01-16T04:10:17;98980.69;;;0.61;67.83
23953;BME280;12163;49.316;6.092;2024-01-16T04:12:43;98979.56;;;0.57;67.85
23953;BME280;12163;49.316;6.092;2024-01-16T04:15:10;98970.22;;;0.54;68.11
23953;BME280;12163;49.316;6.092;2024-01-16T04:17:37;98967.81;;;0.53;68.25
23953;BME280;12163;49.316;6.092;2024-01-16T04:20:04;98968.16;;;0.56;67.54
23953;BME280;12163;49.316;6.092;2024-01-16T04:22:33;98966.75;;;0.54;67.85
23953;BME280;12163;49.316;6.092;2024-01-16T04:24:59;98969.31;;;0.49;68.04
23953;BME280;12163;49.316;6.092;2024-01-16T04:27:26;98958.13;;;0.47;68.15
23953;BME280;12163;49.316;6.092;2024-01-16T04:29:53;98961.84;;;0.46;68.02
23953;BME280;12163;49.316;6.092;2024-01-16T04:32:20;98953.63;;;0.47;67.73
23953;BME280;12163;49.316;6.092;2024-01-16T04:34:46;98959.75;;;0.48;67.71
23953;BME280;12163;49.316;6.092;2024-01-16T04:37:13;98949.34;;;0.46;67.87
23953;BME280;12163;49.316;6.092;2024-01-16T04:39:39;98954.44;;;0.48;67.84
23953;BME280;12163;49.316;6.092;2024-01-16T04:42:06;98950.75;;;0.49;68.08
23953;BME280;12163;49.316;6.092;2024-01-16T04:44:32;98943.81;;;0.48;67.83
23953;BME280;12163;49.316;6.092;2024-01-16T04:46:59;98939.56;;;0.47;67.84
23953;BME280;12163;49.316;6.092;2024-01-16T04:49:26;98936.56;;;0.43;67.71
23953;BME280;12163;49.316;6.092;2024-01-16T04:51:52;98941.03;;;0.43;67.40
23953;BME280;12163;49.316;6.092;2024-01-16T04:54:19;98936.00;;;0.41;67.08
23953;BME280;12163;49.316;6.092;2024-01-16T04:56:45;98938.66;;;0.30;66.85
23953;BME280;12163;49.316;6.092;2024-01-16T04:59:12;98950.09;;;0.19;67.11
23953;BME280;12163;49.316;6.092;2024-01-16T05:01:42;98938.81;;;0.12;67.28
23953;BME280;12163;49.316;6.092;2024-01-16T05:04:08;98941.25;;;0.02;67.56
23953;BME280;12163;49.316;6.092;2024-01-16T05:06:36;98937.34;;;-0.07;67.89
23953;BME280;12163;49.316;6.092;2024-01-16T05:09:03;98935.63;;;-0.13;68.35
23953;BME280;12163;49.316;6.092;2024-01-16T05:11:30;98930.22;;;-0.18;68.06
23953;BME280;12163;49.316;6.092;2024-01-16T05:13:56;98924.34;;;-0.20;68.65
23953;BME280;12163;49.316;6.092;2024-01-16T05:16:26;98934.59;;;-0.23;68.61
23953;BME280;12163;49.316;6.092;2024-01-16T05:18:53;98923.63;;;-0.27;69.08
23953;BME280;12163;49.316;6.092;2024-01-16T05:21:20;98916.72;;;-0.28;69.12
23953;BME280;12163;49.316;6.092;2024-01-16T05:23:47;98926.84;;;-0.25;68.88
23953;BME280;12163;49.316;6.092;2024-01-16T05:26:14;98924.34;;;-0.20;68.97
23953;BME280;12163;49.316;6.092;2024-01-16T05:28:40;98914.41;;;-0.13;69.01
23953;BME280;12163;49.316;6.092;2024-01-16T05:31:07;98913.00;;;-0.04;68.93
23953;BME280;12163;49.316;6.092;2024-01-16T05:33:33;98908.06;;;-0.01;68.27
23953;BME280;12163;49.316;6.092;2024-01-16T05:36:00;98911.28;;;0.01;68.34
23953;BME280;12163;49.316;6.092;2024-01-16T05:38:28;98912.41;;;0.05;68.29
23953;BME280;12163;49.316;6.092;2024-01-16T05:40:55;98904.81;;;0.09;68.39
23953;BME280;12163;49.316;6.092;2024-01-16T05:43:21;98914.72;;;0.13;67.80
23953;BME280;12163;49.316;6.092;2024-01-16T05:45:48;98920.34;;;0.17;67.48
23953;BME280;12163;49.316;6.092;2024-01-16T05:48:15;98909.06;;;0.10;67.11
23953;BME280;12163;49.316;6.092;2024-01-16T05:50:42;98914.97;;;0.00;67.50
23953;BME280;12163;49.316;6.092;2024-01-16T05:53:09;98910.47;;;0.01;69.21
23953;BME280;12163;49.316;6.092;2024-01-16T05:55:35;98906.28;;;0.84;74.28
23953;BME280;12163;49.316;6.092;2024-01-16T05:58:03;98892.09;;;1.93;73.47
23953;BME280;12163;49.316;6.092;2024-01-16T06:00:30;98897.00;;;2.23;66.40
23953;BME280;12163;49.316;6.092;2024-01-16T06:02:57;98885.44;;;2.12;63.89
23953;BME280;12163;49.316;6.092;2024-01-16T06:05:23;98889.38;;;1.88;62.99
23953;BME280;12163;49.316;6.092;2024-01-16T06:07:51;98885.22;;;1.60;63.28
23953;BME280;12163;49.316;6.092;2024-01-16T06:10:18;98881.69;;;1.38;64.42
23953;BME280;12163;49.316;6.092;2024-01-16T06:12:44;98880.72;;;1.44;64.90
23953;BME280;12163;49.316;6.092;2024-01-16T06:15:11;98885.91;;;1.34;64.36
23953;BME280;12163;49.316;6.092;2024-01-16T06:17:38;98873.06;;;1.31;64.73
23953;BME280;12163;49.316;6.092;2024-01-16T06:20:06;98875.25;;;1.34;65.06
23953;BME280;12163;49.316;6.092;2024-01-16T06:22:33;98879.81;;;1.55;65.30
23953;BME280;12163;49.316;6.092;2024-01-16T06:24:59;98874.19;;;1.51;63.56
23953;BME280;12163;49.316;6.092;2024-01-16T06:27:28;98882.50;;;1.38;63.53
23953;BME280;12163;49.316;6.092;2024-01-16T06:29:54;98876.22;;;1.28;63.71
23953;BME280;12163;49.316;6.092;2024-01-16T06:32:21;98884.03;;;1.18;63.42
23953;BME280;12163;49.316;6.092;2024-01-16T06:34:48;98887.00;;;1.05;63.70
23953;BME280;12163;49.316;6.092;2024-01-16T06:37:14;98886.25;;;0.93;63.96
23953;BME280;12163;49.316;6.092;2024-01-16T06:39:41;98881.31;;;0.85;64.42
23953;BME280;12163;49.316;6.092;2024-01-16T06:42:07;98889.69;;;0.77;64.26
23953;BME280;12163;49.316;6.092;2024-01-16T06:44:36;98895.63;;;0.67;64.60
23953;BME280;12163;49.316;6.092;2024-01-16T06:47:03;98886.88;;;0.55;64.52
23953;BME280;12163;49.316;6.092;2024-01-16T06:49:30;98893.63;;;0.46;64.98
23953;BME280;12163;49.316;6.092;2024-01-16T06:51:56;98905.31;;;0.34;65.41
23953;BME280;12163;49.316;6.092;2024-01-16T06:54:24;98893.47;;;0.25;65.90
23953;BME280;12163;49.316;6.092;2024-01-16T06:56:50;98892.31;;;0.21;65.82
23953;BME280;12163;49.316;6.092;2024-01-16T06:59:17;98903.66;;;0.16;65.93
23953;BME280;12163;49.316;6.092;2024-01-16T07:01:46;98895.81;;;0.10;65.98
23953;BME280;12163;49.316;6.092;2024-01-16T07:04:12;98903.66;;;0.05;66.05
23953;BME280;12163;49.316;6.092;2024-01-16T07:06:40;98907.22;;;-0.01;66.02
23953;BME280;12163;49.316;6.092;2024-01-16T07:09:07;98915.91;;;-0.05;66.38
23953;BME280;12163;49.316;6.092;2024-01-16T07:11:37;98927.19;;;-0.10;66.68
23953;BME280;12163;49.316;6.092;2024-01-16T07:14:07;98916.00;;;-0.12;66.59
23953;BME280;12163;49.316;6.092;2024-01-16T07:16:34;98923.88;;;-0.17;66.17
23953;BME280;12163;49.316;6.092;2024-01-16T07:19:01;98924.34;;;-0.20;66.50
23953;BME280;12163;49.316;6.092;2024-01-16T07:21:28;98924.78;;;-0.23;66.22
23953;BME280;12163;49.316;6.092;2024-01-16T07:23:55;98925.69;;;-0.29;66.92
23953;BME280;12163;49.316;6.092;2024-01-16T07:26:22;98929.38;;;-0.30;67.38
23953;BME280;12163;49.316;6.092;2024-01-16T07:28:49;98929.19;;;-0.28;67.56
23953;BME280;12163;49.316;6.092;2024-01-16T07:31:16;98932.41;;;-0.26;67.80
23953;BME280;12163;49.316;6.092;2024-01-16T07:33:46;98926.28;;;-0.27;67.37
23953;BME280;12163;49.316;6.092;2024-01-16T07:36:13;98944.25;;;-0.29;67.51
23953;BME280;12163;49.316;6.092;2024-01-16T07:38:40;98946.44;;;-0.26;67.45
23953;BME280;12163;49.316;6.092;2024-01-16T07:41:06;98949.81;;;-0.30;67.51
23953;BME280;12163;49.316;6.092;2024-01-16T07:43:33;98954.28;;;-0.31;67.27
23953;BME280;12163;49.316;6.092;2024-01-16T07:46:01;98955.69;;;-0.28;67.27
23953;BME280;12163;49.316;6.092;2024-01-16T07:48:29;98941.13;;;-0.26;67.54
23953;BME280;12163;49.316;6.092;2024-01-16T07:50:56;98941.50;;;-0.22;67.89
23953;BME280;12163;49.316;6.092;2024-01-16T07:53:23;98948.75;;;-0.18;67.54
23953;BME280;12163;49.316;6.092;2024-01-16T07:55:49;98947.84;;;-0.12;67.42
23953;BME280;12163;49.316;6.092;2024-01-16T07:58:16;98945.75;;;-0.10;67.40
23953;BME280;12163;49.316;6.092;2024-01-16T08:00:42;98946.56;;;-0.09;67.06
23953;BME280;12163;49.316;6.092;2024-01-16T08:03:09;98954.28;;;-0.08;67.04
23953;BME280;12163;49.316;6.092;2024-01-16T08:05:40;98951.63;;;-0.08;66.69
23953;BME280;12163;49.316;6.092;2024-01-16T08:08:10;98956.94;;;-0.08;66.62
23953;BME280;12163;49.316;6.092;2024-01-16T08:10:41;98961.19;;;-0.07;66.55
23953;BME280;12163;49.316;6.092;2024-01-16T08:13:08;98958.53;;;-0.07;66.63
23953;BME280;12163;49.316;6.092;2024-01-16T08:15:35;98960.25;;;-0.01;66.82
23953;BME280;12163;49.316;6.092;2024-01-16T08:18:02;98963.28;;;0.02;66.44
23953;BME280;12163;49.316;6.092;2024-01-16T08:20:28;98957.28;;;0.07;66.51
23953;BME280;12163;49.316;6.092;2024-01-16T08:22:55;98963.72;;;0.11;66.48
23953;BME280;12163;49.316;6.092;2024-01-16T08:25:22;98964.41;;;0.18;66.21
23953;BME280;12163;49.316;6.092;2024-01-16T08:27:48;98965.09;;;0.25;65.93
23953;BME280;12163;49.316;6.092;2024-01-16T08:30:15;98954.47;;;0.36;65.95
23953;BME280;12163;49.316;6.092;2024-01-16T08:32:41;98959.28;;;0.51;65.46
23953;BME280;12163;49.316;6.092;2024-01-16T08:35:08;98958.31;;;0.57;64.78
23953;BME280;12163;49.316;6.092;2024-01-16T08:37:35;98952.06;;;0.63;64.95
23953;BME280;12163;49.316;6.092;2024-01-16T08:40:02;98950.41;;;0.73;64.77
23953;BME280;12163;49.316;6.092;2024-01-16T08:42:30;98943.84;;;0.76;64.61
23953;BME280;12163;49.316;6.092;2024-01-16T08:44:57;98955.69;;;0.85;64.40
23953;BME280;12163;49.316;6.092;2024-01-16T08:47:23;98949.44;;;0.91;64.16
23953;BME280;12163;49.316;6.092;2024-01-16T08:49:50;98944.22;;;0.96;64.09
23953;BME280;12163;49.316;6.092;2024-01-16T08:52:17;98949.53;;;0.96;63.54
23953;BME280;12163;49.316;6.092;2024-01-16T08:54:43;98947.84;;;0.90;64.07
23953;BME280;12163;49.316;6.092;2024-01-16T08:57:10;98942.75;;;0.88;64.08
23953;BME280;12163;49.316;6.092;2024-01-16T08:59:40;98950.56;;;0.95;64.32
23953;BME280;12163;49.316;6.092;2024-01-16T09:02:07;98942.22;;;1.03;64.16
23953;BME280;12163;49.316;6.092;2024-01-16T09:04:34;98941.25;;;1.09;63.47
23953;BME280;12163;49.316;6.092;2024-01-16T09:07:01;98938.69;;;1.14;64.15
23953;BME280;12163;49.316;6.092;2024-01-16T09:09:28;98942.47;;;1.18;63.77
23953;BME280;12163;49.316;6.092;2024-01-16T09:11:54;98949.50;;;1.24;63.70
23953;BME280;12163;49.316;6.092;2024-01-16T09:14:21;98945.63;;;1.31;63.14
23953;BME280;12163;49.316;6.092;2024-01-16T09:16:47;98951.28;;;1.35;63.61
23953;BME280;12163;49.316;6.092;2024-01-16T09:19:14;98936.94;;;1.36;63.00
23953;BME280;12163;49.316;6.092;2024-01-16T09:21:40;98933.25;;;1.37;62.93
23953;BME280;12163;49.316;6.092;2024-01-16T09:24:07;98931.63;;;1.36;62.50
23953;BME280;12163;49.316;6.092;2024-01-16T09:26:34;98925.16;;;1.32;62.42
23953;BME280;12163;49.316;6.092;2024-01-16T09:29:01;98917.78;;;1.34;63.05
23953;BME280;12163;49.316;6.092;2024-01-16T09:31:29;98918.09;;;1.37;62.83
23953;BME280;12163;49.316;6.092;2024-01-16T09:33:56;98909.41;;;1.42;62.90
23953;BME280;12163;49.316;6.092;2024-01-16T09:36:22;98919.06;;;1.48;63.04
23953;BME280;12163;49.316;6.092;2024-01-16T09:38:49;98911.66;;;1.50;62.48
23953;BME280;12163;49.316;6.092;2024-01-16T09:41:16;98919.69;;;1.55;62.56
23953;BME280;12163;49.316;6.092;2024-01-16T09:43:43;98917.13;;;1.60;62.65
23953;BME280;12163;49.316;6.092;2024-01-16T09:46:10;98912.13;;;1.63;62.47
23953;BME280;12163;49.316;6.092;2024-01-16T09:48:37;98916.50;;;1.69;62.26
23953;BME280;12163;49.316;6.092;2024-01-16T09:51:05;98918.16;;;1.75;62.06
23953;BME280;12163;49.316;6.092;2024-01-16T09:53:32;98913.16;;;1.78;61.72
23953;BME280;12163;49.316;6.092;2024-01-16T09:56:01;98915.34;;;1.81;61.85
23953;BME280;12163;49.316;6.092;2024-01-16T09:58:33;98904.22;;;1.84;61.89
23953;BME280;12163;49.316;6.092;2024-01-16T10:01:01;98901.59;;;1.89;62.07
23953;BME280;12163;49.316;6.092;2024-01-16T10:03:30;98911.25;;;1.95;62.18
23953;BME280;12163;49.316;6.092;2024-01-16T10:05:57;98911.41;;;2.05;62.11
23953;BME280;12163;49.316;6.092;2024-01-16T10:08:27;98903.00;;;2.13;61.64
23953;BME280;12163;49.316;6.092;2024-01-16T10:10:55;98905.16;;;2.16;61.76
23953;BME280;12163;49.316;6.092;2024-01-16T10:13:21;98899.91;;;2.21;61.77
23953;BME280;12163;49.316;6.092;2024-01-16T10:15:52;98896.81;;;2.29;61.42
23953;BME280;12163;49.316;6.092;2024-01-16T10:18:22;98895.03;;;2.35;61.21
23953;BME280;12163;49.316;6.092;2024-01-16T10:20:51;98894.81;;;2.41;60.82
23953;BME280;12163;49.316;6.092;2024-01-16T10:23:26;98892.44;;;2.40;60.57
23953;BME280;12163;49.316;6.092;2024-01-16T10:28:37;98873.06;;;2.44;61.12
23953;BME280;12163;49.316;6.092;2024-01-16T10:31:05;98874.16;;;2.48;60.67
23953;BME280;12163;49.316;6.092;2024-01-16T10:33:33;98870.50;;;2.54;60.75
23953;BME280;12163;49.316;6.092;2024-01-16T10:36:14;98864.16;;;2.60;61.04
23953;BME280;12163;49.316;6.092;2024-01-16T10:38:44;98863.22;;;2.71;60.83
23953;BME280;12163;49.316;6.092;2024-01-16T10:41:15;98854.03;;;2.84;60.38
23953;BME280;12163;49.316;6.092;2024-01-16T10:43:44;98850.88;;;2.92;60.08
23953;BME280;12163;49.316;6.092;2024-01-16T10:46:15;98852.84;;;3.01;59.56
23953;BME280;12163;49.316;6.092;2024-01-16T10:48:58;98853.44;;;3.08;59.73
23953;BME280;12163;49.316;6.092;2024-01-16T10:51:26;98850.84;;;3.13;59.06
23953;BME280;12163;49.316;6.092;2024-01-16T10:53:58;98856.75;;;3.20;59.19
23953;BME280;12163;49.316;6.092;2024-01-16T10:56:29;98854.09;;;3.25;59.09
23953;BME280;12163;49.316;6.092;2024-01-16T11:01:38;98851.00;;;3.33;58.21
23953;BME280;12163;49.316;6.092;2024-01-16T11:04:06;98861.16;;;3.36;58.17
23953;BME280;12163;49.316;6.092;2024-01-16T11:06:33;98841.19;;;3.43;58.06
23953;BME280;12163;49.316;6.092;2024-01-16T11:09:00;98843.09;;;3.48;57.64
23953;BME280;12163;49.316;6.092;2024-01-16T11:11:31;98833.75;;;3.45;56.00
23953;BME280;12163;49.316;6.092;2024-01-16T11:13:59;98827.56;;;3.40;55.17
23953;BME280;12163;49.316;6.092;2024-01-16T11:16:26;98837.38;;;3.34;53.95
23953;BME280;12163;49.316;6.092;2024-01-16T11:18:52;98835.78;;;3.33;53.52
23953;BME280;12163;49.316;6.092;2024-01-16T11:21:22;98839.28;;;3.39;54.17
23953;BME280;12163;49.316;6.092;2024-01-16T11:23:49;98824.91;;;3.40;53.25
23953;BME280;12163;49.316;6.092;2024-01-16T11:26:29;98822.25;;;3.45;53.25
23953;BME280;12163;49.316;6.092;2024-01-16T11:29:00;98828.16;;;3.52;52.85
23953;BME280;12163;49.316;6.092;2024-01-16T11:31:35;98824.50;;;3.63;52.71
23953;BME280;12163;49.316;6.092;2024-01-16T11:34:02;98819.75;;;3.75;52.49
23953;BME280;12163;49.316;6.092;2024-01-16T11:39:19;98806.72;;;3.78;51.12
23953;BME280;12163;49.316;6.092;2024-01-16T11:41:56;98803.75;;;3.75;50.80
23953;BME280;12163;49.316;6.092;2024-01-16T11:44:50;98804.31;;;3.77;50.73
23953;BME280;12163;49.316;6.092;2024-01-16T11:47:20;98809.38;;;3.78;50.69
23953;BME280;12163;49.316;6.092;2024-01-16T11:49:50;98810.75;;;3.81;50.81
23953;BME280;12163;49.316;6.092;2024-01-16T11:52:39;98813.13;;;3.77;50.94
23953;BME280;12163;49.316;6.092;2024-01-16T12:00:35;98808.50;;;3.63;50.80
23953;BME280;12163;49.316;6.092;2024-01-16T12:03:02;98797.28;;;3.56;50.72
23953;BME280;12163;49.316;6.092;2024-01-16T12:05:30;98792.44;;;3.53;50.93
23953;BME280;12163;49.316;6.092;2024-01-16T12:07:57;98786.09;;;3.59;51.21
23953;BME280;12163;49.316;6.092;2024-01-16T12:10:24;98785.53;;;3.57;50.50
23953;BME280;12163;49.316;6.092;2024-01-16T12:12:57;98776.94;;;3.50;50.23
23953;BME280;12163;49.316;6.092;2024-01-16T12:15:29;98771.63;;;3.50;50.72
23953;BME280;12163;49.316;6.092;2024-01-16T12:18:00;98771.63;;;3.50;51.12
23953;BME280;12163;49.316;6.092;2024-01-16T12:20:32;98782.88;;;3.57;51.18
23953;BME280;12163;49.316;6.092;2024-01-16T12:23:04;98772.75;;;3.59;51.01
23953;BME280;12163;49.316;6.092;2024-01-16T12:25:36;98771.16;;;3.63;51.06
23953;BME280;12163;49.316;6.092;2024-01-16T12:28:23;98767.97;;;3.66;51.02
23953;BME280;12163;49.316;6.092;2024-01-16T12:30:58;98753.31;;;3.68;51.49
23953;BME280;12163;49.316;6.092;2024-01-16T12:33:26;98756.81;;;3.74;51.24
23953;BME280;12163;49.316;6.092;2024-01-16T12:36:01;98755.25;;;3.78;51.27
23953;BME280;12163;49.316;6.092;2024-01-16T12:38:29;98749.91;;;3.83;51.52
23953;BME280;12163;49.316;6.092;2024-01-16T12:40:57;98744.03;;;3.81;51.14
23953;BME280;12163;49.316;6.092;2024-01-16T12:43:25;98745.09;;;3.80;50.86
23953;BME280;12163;49.316;6.092;2024-01-16T12:45:55;98742.69;;;3.83;51.13
23953;BME280;12163;49.316;6.092;2024-01-16T12:48:23;98736.84;;;3.86;50.88
23953;BME280;12163;49.316;6.092;2024-01-16T12:50:50;98726.44;;;3.85;50.35
23953;BME280;12163;49.316;6.092;2024-01-16T12:53:21;98721.63;;;3.82;50.54
23953;BME280;12163;49.316;6.092;2024-01-16T12:56:00;98722.66;;;3.76;50.26
23953;BME280;12163;49.316;6.092;2024-01-16T12:58:35;98726.44;;;3.80;50.94
23953;BME280;12163;49.316;6.092;2024-01-16T13:01:23;98724.03;;;3.83;50.54
23953;BME280;12163;49.316;6.092;2024-01-16T13:04:05;98726.97;;;3.82;50.26
23953;BME280;12163;49.316;6.092;2024-01-16T13:06:31;98730.69;;;3.81;49.75
23953;BME280;12163;49.316;6.092;2024-01-16T13:09:10;98726.16;;;3.81;50.47
23953;BME280;12163;49.316;6.092;2024-01-16T13:11:54;98721.88;;;3.85;49.86
23953;BME280;12163;49.316;6.092;2024-01-16T13:14:22;98721.09;;;3.80;49.37
23953;BME280;12163;49.316;6.092;2024-01-16T13:16:50;98718.13;;;3.76;49.53
23953;BME280;12163;49.316;6.092;2024-01-16T13:19:20;98716.53;;;3.75;50.18
23953;BME280;12163;49.316;6.092;2024-01-16T13:21:48;98712.81;;;3.76;49.85
23953;BME280;12163;49.316;6.092;2024-01-16T13:24:15;98703.44;;;3.74;49.33
23953;BME280;12163;49.316;6.092;2024-01-16T13:26:44;98692.78;;;3.74;49.19
23953;BME280;12163;49.316;6.092;2024-01-16T13:29:10;98703.97;;;3.71;48.71